UATT 181230Z 01007MPS CAVOK 21/02 Q1006 NOSIG RMK QFE735/0980
QNH:(hPa/inHg/mmHg)1006 / 29.71 / 755
QFE:(hPa/inHg/mmHg)979 / 28.90 / 734
Temperature21
Dew Point2
Visibility> 10000
WeatherCAVOK
Cloud Cover
Transition Altitude10000 ft.
Transition LevelFL120
SQUAWK